sensor_id;sensor_type;location;lat;lon;timestamp;pressure;altitude;pressure_sealevel;temperature;humidity
19526;BME280;9907;42.676;26.348;2022-07-11T00:02:15;98515.22;;;21.50;57.45
19526;BME280;9907;42.676;26.348;2022-07-11T00:04:41;98522.09;;;21.52;57.58
19526;BME280;9907;42.676;26.348;2022-07-11T00:07:12;98509.34;;;21.53;57.22
19526;BME280;9907;42.676;26.348;2022-07-11T00:09:38;98499.31;;;21.53;56.49
19526;BME280;9907;42.676;26.348;2022-07-11T00:12:04;98500.56;;;21.51;56.74
19526;BME280;9907;42.676;26.348;2022-07-11T00:14:30;98501.63;;;21.50;56.32
19526;BME280;9907;42.676;26.348;2022-07-11T00:16:55;98503.13;;;21.46;55.53
19526;BME280;9907;42.676;26.348;2022-07-11T00:19:21;98496.84;;;21.45;56.32
19526;BME280;9907;42.676;26.348;2022-07-11T00:21:47;98492.69;;;21.43;57.70
19526;BME280;9907;42.676;26.348;2022-07-11T00:24:13;98491.63;;;21.44;57.36
19526;BME280;9907;42.676;26.348;2022-07-11T00:26:39;98493.53;;;21.43;57.32
19526;BME280;9907;42.676;26.348;2022-07-11T00:29:05;98502.72;;;21.42;56.83
19526;BME280;9907;42.676;26.348;2022-07-11T00:31:31;98495.44;;;21.36;57.63
19526;BME280;9907;42.676;26.348;2022-07-11T00:33:57;98506.28;;;21.36;56.55
19526;BME280;9907;42.676;26.348;2022-07-11T00:36:23;98501.09;;;21.34;56.93
19526;BME280;9907;42.676;26.348;2022-07-11T00:38:49;98501.94;;;21.35;56.80
19526;BME280;9907;42.676;26.348;2022-07-11T00:41:14;98504.47;;;21.30;57.11
19526;BME280;9907;42.676;26.348;2022-07-11T00:43:41;98492.75;;;21.29;56.68
19526;BME280;9907;42.676;26.348;2022-07-11T00:46:08;98499.47;;;21.27;57.65
19526;BME280;9907;42.676;26.348;2022-07-11T00:48:34;98497.81;;;21.26;57.78
19526;BME280;9907;42.676;26.348;2022-07-11T00:51:02;98494.69;;;21.22;57.35
19526;BME280;9907;42.676;26.348;2022-07-11T00:53:29;98495.53;;;21.23;56.97
19526;BME280;9907;42.676;26.348;2022-07-11T00:55:55;98507.66;;;21.20;57.28
19526;BME280;9907;42.676;26.348;2022-07-11T00:58:21;98501.84;;;21.17;56.50
19526;BME280;9907;42.676;26.348;2022-07-11T01:00:48;98506.44;;;21.16;56.98
19526;BME280;9907;42.676;26.348;2022-07-11T01:03:14;98502.69;;;21.11;57.89
19526;BME280;9907;42.676;26.348;2022-07-11T01:05:39;98496.22;;;21.12;58.17
19526;BME280;9907;42.676;26.348;2022-07-11T01:08:05;98502.91;;;21.09;57.37
19526;BME280;9907;42.676;26.348;2022-07-11T01:10:31;98502.91;;;21.09;57.14
19526;BME280;9907;42.676;26.348;2022-07-11T01:12:57;98500.38;;;21.08;57.50
19526;BME280;9907;42.676;26.348;2022-07-11T01:15:23;98514.41;;;21.05;57.42
19526;BME280;9907;42.676;26.348;2022-07-11T01:17:49;98501.25;;;21.02;57.82
19526;BME280;9907;42.676;26.348;2022-07-11T01:20:17;98514.59;;;21.03;57.26
19526;BME280;9907;42.676;26.348;2022-07-11T01:22:53;98505.84;;;21.01;57.21
19526;BME280;9907;42.676;26.348;2022-07-11T01:25:19;98513.38;;;20.99;58.13
19526;BME280;9907;42.676;26.348;2022-07-11T01:28:01;98512.13;;;21.02;57.46
19526;BME280;9907;42.676;26.348;2022-07-11T01:30:28;98516.09;;;20.99;56.56
19526;BME280;9907;42.676;26.348;2022-07-11T01:32:55;98500.47;;;20.95;57.29
19526;BME280;9907;42.676;26.348;2022-07-11T01:35:21;98507.94;;;20.99;56.61
19526;BME280;9907;42.676;26.348;2022-07-11T01:37:47;98514.00;;;21.01;57.48
19526;BME280;9907;42.676;26.348;2022-07-11T01:40:13;98514.22;;;21.00;57.38
19526;BME280;9907;42.676;26.348;2022-07-11T01:42:39;98506.69;;;21.02;56.86
19526;BME280;9907;42.676;26.348;2022-07-11T01:45:05;98508.56;;;21.01;56.54
19526;BME280;9907;42.676;26.348;2022-07-11T01:47:30;98497.91;;;21.00;56.82
19526;BME280;9907;42.676;26.348;2022-07-11T01:49:56;98503.19;;;20.95;57.18
19526;BME280;9907;42.676;26.348;2022-07-11T01:52:21;98495.88;;;20.95;57.61
19526;BME280;9907;42.676;26.348;2022-07-11T01:54:47;98504.22;;;20.94;57.57
19526;BME280;9907;42.676;26.348;2022-07-11T01:57:13;98508.22;;;20.91;57.40
19526;BME280;9907;42.676;26.348;2022-07-11T01:59:39;98505.50;;;20.91;57.21
19526;BME280;9907;42.676;26.348;2022-07-11T02:02:04;98502.78;;;20.91;57.38
19526;BME280;9907;42.676;26.348;2022-07-11T02:04:30;98512.00;;;20.83;56.94
19526;BME280;9907;42.676;26.348;2022-07-11T02:06:56;98502.38;;;20.81;56.64
19526;BME280;9907;42.676;26.348;2022-07-11T02:09:21;98499.47;;;20.82;55.85
19526;BME280;9907;42.676;26.348;2022-07-11T02:11:47;98509.69;;;20.80;56.19
19526;BME280;9907;42.676;26.348;2022-07-11T02:14:12;98513.25;;;20.81;56.96
19526;BME280;9907;42.676;26.348;2022-07-11T02:16:39;98507.22;;;20.79;56.59
19526;BME280;9907;42.676;26.348;2022-07-11T02:19:05;98518.69;;;20.81;56.35
19526;BME280;9907;42.676;26.348;2022-07-11T02:21:32;98517.66;;;20.75;55.32
19526;BME280;9907;42.676;26.348;2022-07-11T02:23:58;98513.91;;;20.70;55.93
19526;BME280;9907;42.676;26.348;2022-07-11T02:26:23;98518.09;;;20.66;56.19
19526;BME280;9907;42.676;26.348;2022-07-11T02:28:49;98520.81;;;20.66;56.85
19526;BME280;9907;42.676;26.348;2022-07-11T02:31:14;98524.16;;;20.68;55.46
19526;BME280;9907;42.676;26.348;2022-07-11T02:33:40;98533.97;;;20.69;56.33
19526;BME280;9907;42.676;26.348;2022-07-11T02:36:06;98537.31;;;20.71;56.42
19526;BME280;9907;42.676;26.348;2022-07-11T02:38:33;98535.63;;;20.70;56.58
19526;BME280;9907;42.676;26.348;2022-07-11T02:40:59;98534.38;;;20.66;56.32
19526;BME280;9907;42.676;26.348;2022-07-11T02:43:25;98533.38;;;20.60;55.87
19526;BME280;9907;42.676;26.348;2022-07-11T02:45:51;98521.47;;;20.61;55.88
19526;BME280;9907;42.676;26.348;2022-07-11T02:48:17;98531.94;;;20.58;56.36
19526;BME280;9907;42.676;26.348;2022-07-11T02:50:42;98543.19;;;20.55;56.06
19526;BME280;9907;42.676;26.348;2022-07-11T02:53:08;98538.81;;;20.60;56.23
19526;BME280;9907;42.676;26.348;2022-07-11T02:55:33;98537.31;;;20.64;54.94
19526;BME280;9907;42.676;26.348;2022-07-11T02:57:59;98539.84;;;20.59;55.40
19526;BME280;9907;42.676;26.348;2022-07-11T03:00:24;98536.94;;;20.61;56.04
19526;BME280;9907;42.676;26.348;2022-07-11T03:02:50;98544.03;;;20.62;55.91
19526;BME280;9907;42.676;26.348;2022-07-11T03:05:16;98540.88;;;20.65;55.39
19526;BME280;9907;42.676;26.348;2022-07-11T03:07:42;98551.72;;;20.65;55.16
19526;BME280;9907;42.676;26.348;2022-07-11T03:10:08;98550.50;;;20.61;55.11
19526;BME280;9907;42.676;26.348;2022-07-11T03:12:34;98555.06;;;20.67;54.88
19526;BME280;9907;42.676;26.348;2022-07-11T03:14:59;98546.91;;;20.67;54.35
19526;BME280;9907;42.676;26.348;2022-07-11T03:17:25;98552.13;;;20.68;54.61
19526;BME280;9907;42.676;26.348;2022-07-11T03:19:51;98553.59;;;20.71;54.48
19526;BME280;9907;42.676;26.348;2022-07-11T03:22:17;98553.19;;;20.67;54.51
19526;BME280;9907;42.676;26.348;2022-07-11T03:24:43;98553.59;;;20.71;54.45
19526;BME280;9907;42.676;26.348;2022-07-11T03:27:08;98545.19;;;20.85;54.51
19526;BME280;9907;42.676;26.348;2022-07-11T03:29:34;98541.00;;;20.89;53.69
19526;BME280;9907;42.676;26.348;2022-07-11T03:32:00;98539.13;;;20.90;53.90
19526;BME280;9907;42.676;26.348;2022-07-11T03:34:26;98553.06;;;21.00;52.67
19526;BME280;9907;42.676;26.348;2022-07-11T03:36:51;98549.50;;;21.06;52.77
19526;BME280;9907;42.676;26.348;2022-07-11T03:39:17;98546.78;;;21.13;52.95
19526;BME280;9907;42.676;26.348;2022-07-11T03:41:42;98548.66;;;21.12;52.57
19526;BME280;9907;42.676;26.348;2022-07-11T03:44:08;98563.91;;;21.13;51.92
19526;BME280;9907;42.676;26.348;2022-07-11T03:46:34;98554.09;;;21.12;52.61
19526;BME280;9907;42.676;26.348;2022-07-11T03:49:00;98576.66;;;21.13;52.50
19526;BME280;9907;42.676;26.348;2022-07-11T03:51:25;98569.34;;;21.13;52.35
19526;BME280;9907;42.676;26.348;2022-07-11T03:53:51;98587.28;;;21.14;52.46
19526;BME280;9907;42.676;26.348;2022-07-11T03:56:16;98587.72;;;21.11;51.70
19526;BME280;9907;42.676;26.348;2022-07-11T03:58:46;98600.44;;;21.11;52.87
19526;BME280;9907;42.676;26.348;2022-07-11T04:01:11;98595.41;;;21.14;52.69
19526;BME280;9907;42.676;26.348;2022-07-11T04:03:37;98608.59;;;21.17;52.45
19526;BME280;9907;42.676;26.348;2022-07-11T04:06:03;98606.47;;;21.19;52.05
19526;BME280;9907;42.676;26.348;2022-07-11T04:08:29;98617.94;;;21.21;52.10
19526;BME280;9907;42.676;26.348;2022-07-11T04:10:54;98621.06;;;21.25;53.37
19526;BME280;9907;42.676;26.348;2022-07-11T04:13:20;98618.94;;;21.33;52.05
19526;BME280;9907;42.676;26.348;2022-07-11T04:15:46;98612.41;;;21.48;53.39
19526;BME280;9907;42.676;26.348;2022-07-11T04:18:11;98605.84;;;21.62;51.01
19526;BME280;9907;42.676;26.348;2022-07-11T04:20:37;98599.25;;;21.82;50.87
19526;BME280;9907;42.676;26.348;2022-07-11T04:23:02;98609.31;;;22.07;51.30
19526;BME280;9907;42.676;26.348;2022-07-11T04:25:28;98608.84;;;22.41;50.36
19526;BME280;9907;42.676;26.348;2022-07-11T04:27:53;98611.34;;;22.67;50.03
19526;BME280;9907;42.676;26.348;2022-07-11T04:30:19;98590.94;;;22.95;48.45
19526;BME280;9907;42.676;26.348;2022-07-11T04:32:44;98611.72;;;23.25;47.77
19526;BME280;9907;42.676;26.348;2022-07-11T04:35:10;98605.38;;;23.50;47.10
19526;BME280;9907;42.676;26.348;2022-07-11T04:37:35;98605.72;;;23.83;46.28
19526;BME280;9907;42.676;26.348;2022-07-11T04:40:01;98622.28;;;24.11;46.01
19526;BME280;9907;42.676;26.348;2022-07-11T04:42:26;98619.97;;;24.27;45.83
19526;BME280;9907;42.676;26.348;2022-07-11T04:44:52;98614.63;;;24.55;45.90
19526;BME280;9907;42.676;26.348;2022-07-11T04:47:17;98625.91;;;24.58;45.21
19526;BME280;9907;42.676;26.348;2022-07-11T04:49:44;98611.44;;;25.04;44.77
19526;BME280;9907;42.676;26.348;2022-07-11T04:52:12;98619.34;;;25.29;43.85
19526;BME280;9907;42.676;26.348;2022-07-11T04:54:38;98620.22;;;25.58;44.28
19526;BME280;9907;42.676;26.348;2022-07-11T04:57:04;98614.25;;;25.61;43.08
19526;BME280;9907;42.676;26.348;2022-07-11T04:59:30;98634.19;;;25.73;43.43
19526;BME280;9907;42.676;26.348;2022-07-11T05:01:55;98627.09;;;25.89;42.58
19526;BME280;9907;42.676;26.348;2022-07-11T05:04:21;98641.31;;;26.02;41.48
19526;BME280;9907;42.676;26.348;2022-07-11T05:06:46;98641.63;;;26.34;41.88
19526;BME280;9907;42.676;26.348;2022-07-11T05:09:12;98634.25;;;26.51;41.24
19526;BME280;9907;42.676;26.348;2022-07-11T05:11:38;98637.31;;;26.88;40.54
19526;BME280;9907;42.676;26.348;2022-07-11T05:14:04;98642.59;;;26.95;39.50
19526;BME280;9907;42.676;26.348;2022-07-11T05:16:29;98648.13;;;27.17;39.41
19526;BME280;9907;42.676;26.348;2022-07-11T05:18:55;98634.16;;;27.40;39.65
19526;BME280;9907;42.676;26.348;2022-07-11T05:21:20;98639.31;;;27.53;38.20
19526;BME280;9907;42.676;26.348;2022-07-11T05:23:49;98637.09;;;27.77;38.53
19526;BME280;9907;42.676;26.348;2022-07-11T05:26:14;98633.66;;;28.13;37.34
19526;BME280;9907;42.676;26.348;2022-07-11T05:28:41;98635.94;;;28.21;37.35
19526;BME280;9907;42.676;26.348;2022-07-11T05:31:06;98630.53;;;28.31;37.14
19526;BME280;9907;42.676;26.348;2022-07-11T05:33:32;98639.31;;;28.60;36.52
19526;BME280;9907;42.676;26.348;2022-07-11T05:35:58;98629.84;;;28.78;36.00
19526;BME280;9907;42.676;26.348;2022-07-11T05:38:23;98645.66;;;29.02;36.01
19526;BME280;9907;42.676;26.348;2022-07-11T05:40:49;98644.03;;;29.07;35.29
19526;BME280;9907;42.676;26.348;2022-07-11T05:43:14;98652.31;;;29.12;35.80
19526;BME280;9907;42.676;26.348;2022-07-11T05:45:40;98644.91;;;29.17;34.82
19526;BME280;9907;42.676;26.348;2022-07-11T05:48:05;98649.19;;;29.40;35.00
19526;BME280;9907;42.676;26.348;2022-07-11T05:50:31;98645.41;;;29.61;34.63
19526;BME280;9907;42.676;26.348;2022-07-11T05:52:56;98658.69;;;29.79;34.32
19526;BME280;9907;42.676;26.348;2022-07-11T05:55:23;98650.19;;;29.86;34.67
19526;BME280;9907;42.676;26.348;2022-07-11T05:57:49;98659.56;;;29.90;34.80
19526;BME280;9907;42.676;26.348;2022-07-11T06:00:14;98669.84;;;30.20;33.98
19526;BME280;9907;42.676;26.348;2022-07-11T06:02:40;98666.00;;;30.31;33.70
19526;BME280;9907;42.676;26.348;2022-07-11T06:05:07;98672.09;;;30.53;33.28
19526;BME280;9907;42.676;26.348;2022-07-11T06:07:33;98678.19;;;30.70;32.60
19526;BME280;9907;42.676;26.348;2022-07-11T06:10:17;98667.69;;;30.87;32.63
19526;BME280;9907;42.676;26.348;2022-07-11T06:12:43;98669.31;;;31.09;32.79
19526;BME280;9907;42.676;26.348;2022-07-11T06:15:09;98667.94;;;31.21;32.84
19526;BME280;9907;42.676;26.348;2022-07-11T06:17:35;98670.34;;;31.48;31.87
19526;BME280;9907;42.676;26.348;2022-07-11T06:20:01;98682.13;;;31.74;31.67
19526;BME280;9907;42.676;26.348;2022-07-11T06:22:26;98668.84;;;31.81;31.20
19526;BME280;9907;42.676;26.348;2022-07-11T06:24:52;98671.81;;;31.95;30.59
19526;BME280;9907;42.676;26.348;2022-07-11T06:27:18;98670.88;;;32.14;31.12
19526;BME280;9907;42.676;26.348;2022-07-11T06:29:43;98673.75;;;32.38;30.78
19526;BME280;9907;42.676;26.348;2022-07-11T06:32:09;98665.56;;;32.23;30.82
19526;BME280;9907;42.676;26.348;2022-07-11T06:34:34;98669.13;;;32.28;30.85
19526;BME280;9907;42.676;26.348;2022-07-11T06:37:02;98671.31;;;32.31;30.39
19526;BME280;9907;42.676;26.348;2022-07-11T06:39:28;98679.25;;;32.43;30.37
19526;BME280;9907;42.676;26.348;2022-07-11T06:41:53;98671.06;;;32.28;29.83
19526;BME280;9907;42.676;26.348;2022-07-11T06:44:19;98676.47;;;32.48;30.23
19526;BME280;9907;42.676;26.348;2022-07-11T06:46:44;98680.00;;;32.54;29.92
19526;BME280;9907;42.676;26.348;2022-07-11T06:49:10;98680.25;;;32.62;30.03
19526;BME280;9907;42.676;26.348;2022-07-11T06:51:38;98688.81;;;32.61;29.89
19526;BME280;9907;42.676;26.348;2022-07-11T06:54:04;98689.28;;;32.73;29.48
19526;BME280;9907;42.676;26.348;2022-07-11T06:56:29;98693.47;;;32.70;29.52
19526;BME280;9907;42.676;26.348;2022-07-11T06:58:55;98690.47;;;32.62;29.88
19526;BME280;9907;42.676;26.348;2022-07-11T07:01:20;98695.38;;;32.70;29.42
19526;BME280;9907;42.676;26.348;2022-07-11T07:03:46;98690.94;;;32.74;29.70
19526;BME280;9907;42.676;26.348;2022-07-11T07:06:11;98694.16;;;33.15;29.15
19526;BME280;9907;42.676;26.348;2022-07-11T07:08:37;98692.53;;;33.61;28.35
19526;BME280;9907;42.676;26.348;2022-07-11T07:11:03;98722.03;;;34.37;27.37
19526;BME280;9907;42.676;26.348;2022-07-11T07:13:29;98731.06;;;35.91;25.75
19526;BME280;9907;42.676;26.348;2022-07-11T07:15:55;98727.88;;;37.27;24.45
19526;BME280;9907;42.676;26.348;2022-07-11T07:18:23;98711.72;;;38.17;23.65
19526;BME280;9907;42.676;26.348;2022-07-11T07:20:49;98722.84;;;37.38;24.18
19526;BME280;9907;42.676;26.348;2022-07-11T07:23:15;98724.72;;;37.90;23.28
19526;BME280;9907;42.676;26.348;2022-07-11T07:25:40;98706.22;;;36.08;25.19
19526;BME280;9907;42.676;26.348;2022-07-11T07:28:06;98706.13;;;34.99;25.71
19526;BME280;9907;42.676;26.348;2022-07-11T07:30:32;98698.03;;;34.33;26.83
19526;BME280;9907;42.676;26.348;2022-07-11T07:32:58;98708.78;;;33.73;27.19
19526;BME280;9907;42.676;26.348;2022-07-11T07:35:23;98707.22;;;33.62;27.35
19526;BME280;9907;42.676;26.348;2022-07-11T07:37:49;98713.66;;;33.81;27.64
19526;BME280;9907;42.676;26.348;2022-07-11T07:40:14;98702.09;;;33.74;27.45
19526;BME280;9907;42.676;26.348;2022-07-11T07:42:40;98708.41;;;34.41;26.71
19526;BME280;9907;42.676;26.348;2022-07-11T07:45:06;98719.94;;;34.85;26.84
19526;BME280;9907;42.676;26.348;2022-07-11T07:47:31;98704.28;;;35.08;26.50
19526;BME280;9907;42.676;26.348;2022-07-11T07:49:57;98727.56;;;35.72;26.31
19526;BME280;9907;42.676;26.348;2022-07-11T07:52:23;98713.56;;;35.63;25.19
19526;BME280;9907;42.676;26.348;2022-07-11T07:54:48;98718.78;;;35.51;26.20
19526;BME280;9907;42.676;26.348;2022-07-11T07:57:14;98725.03;;;35.43;26.19
19526;BME280;9907;42.676;26.348;2022-07-11T07:59:39;98708.94;;;35.12;25.14
19526;BME280;9907;42.676;26.348;2022-07-11T08:02:05;98713.81;;;35.21;25.32
19526;BME280;9907;42.676;26.348;2022-07-11T08:04:30;98731.19;;;34.56;26.50
19526;BME280;9907;42.676;26.348;2022-07-11T08:06:56;98741.84;;;34.49;26.75
19526;BME280;9907;42.676;26.348;2022-07-11T08:09:25;98720.63;;;34.58;25.77
19526;BME280;9907;42.676;26.348;2022-07-11T08:11:51;98740.25;;;34.99;25.69
19526;BME280;9907;42.676;26.348;2022-07-11T08:14:16;98742.41;;;35.02;25.30
19526;BME280;9907;42.676;26.348;2022-07-11T08:16:42;98731.94;;;34.25;26.22
19526;BME280;9907;42.676;26.348;2022-07-11T08:19:08;98725.00;;;34.03;26.92
19526;BME280;9907;42.676;26.348;2022-07-11T08:21:34;98728.00;;;34.07;26.55
19526;BME280;9907;42.676;26.348;2022-07-11T08:24:00;98741.69;;;33.98;27.11
19526;BME280;9907;42.676;26.348;2022-07-11T08:26:26;98722.38;;;33.69;27.17
19526;BME280;9907;42.676;26.348;2022-07-11T08:28:51;98718.75;;;33.45;27.59
19526;BME280;9907;42.676;26.348;2022-07-11T08:31:17;98736.03;;;33.61;27.70
19526;BME280;9907;42.676;26.348;2022-07-11T08:33:43;98726.69;;;33.28;27.84
19526;BME280;9907;42.676;26.348;2022-07-11T08:36:08;98728.00;;;33.36;28.08
19526;BME280;9907;42.676;26.348;2022-07-11T08:38:34;98727.38;;;33.44;27.72
19526;BME280;9907;42.676;26.348;2022-07-11T08:41:00;98717.28;;;33.53;27.80
19526;BME280;9907;42.676;26.348;2022-07-11T08:43:29;98718.47;;;33.94;27.87
19526;BME280;9907;42.676;26.348;2022-07-11T08:45:55;98709.06;;;33.71;27.60
19526;BME280;9907;42.676;26.348;2022-07-11T08:48:22;98718.84;;;32.33;28.78
19526;BME280;9907;42.676;26.348;2022-07-11T08:50:49;98704.59;;;32.55;28.11
19526;BME280;9907;42.676;26.348;2022-07-11T08:53:15;98715.00;;;32.73;28.62
19526;BME280;9907;42.676;26.348;2022-07-11T08:55:40;98730.66;;;32.44;28.72
19526;BME280;9907;42.676;26.348;2022-07-11T08:58:07;98711.25;;;32.59;28.61
19526;BME280;9907;42.676;26.348;2022-07-11T09:00:33;98721.84;;;32.81;28.01
19526;BME280;9907;42.676;26.348;2022-07-11T09:03:00;98702.63;;;32.95;27.65
19526;BME280;9907;42.676;26.348;2022-07-11T09:05:27;98709.84;;;32.91;27.82
19526;BME280;9907;42.676;26.348;2022-07-11T09:07:53;98709.28;;;32.60;28.04
19526;BME280;9907;42.676;26.348;2022-07-11T09:10:19;98720.38;;;32.50;28.30
19526;BME280;9907;42.676;26.348;2022-07-11T09:13:09;98709.06;;;32.51;28.81
19526;BME280;9907;42.676;26.348;2022-07-11T09:15:45;98705.00;;;32.77;28.47
19526;BME280;9907;42.676;26.348;2022-07-11T09:21:09;98699.78;;;32.32;28.08
19526;BME280;9907;42.676;26.348;2022-07-11T09:23:55;98708.66;;;32.29;29.70
19526;BME280;9907;42.676;26.348;2022-07-11T09:26:48;98696.69;;;32.39;29.76
19526;BME280;9907;42.676;26.348;2022-07-11T09:29:23;98698.13;;;32.31;28.71
19526;BME280;9907;42.676;26.348;2022-07-11T09:31:53;98701.56;;;32.13;28.78
19526;BME280;9907;42.676;26.348;2022-07-11T09:34:20;98708.09;;;31.73;29.12
19526;BME280;9907;42.676;26.348;2022-07-11T09:36:47;98702.69;;;31.17;29.79
19526;BME280;9907;42.676;26.348;2022-07-11T09:39:15;98704.13;;;29.77;31.23
19526;BME280;9907;42.676;26.348;2022-07-11T09:41:41;98710.13;;;29.22;32.24
19526;BME280;9907;42.676;26.348;2022-07-11T09:46:39;98715.81;;;28.20;33.67
19526;BME280;9907;42.676;26.348;2022-07-11T09:49:05;98728.09;;;27.90;34.97
19526;BME280;9907;42.676;26.348;2022-07-11T09:51:32;98715.84;;;27.76;35.11
19526;BME280;9907;42.676;26.348;2022-07-11T09:53:59;98709.81;;;27.74;34.82
19526;BME280;9907;42.676;26.348;2022-07-11T09:56:26;98717.44;;;27.72;34.81
19526;BME280;9907;42.676;26.348;2022-07-11T09:59:02;98725.75;;;27.77;35.28
19526;BME280;9907;42.676;26.348;2022-07-11T10:01:28;98720.91;;;27.63;34.44
19526;BME280;9907;42.676;26.348;2022-07-11T10:03:55;98728.00;;;27.42;34.68
19526;BME280;9907;42.676;26.348;2022-07-11T10:06:20;98725.97;;;27.16;34.13
19526;BME280;9907;42.676;26.348;2022-07-11T10:08:50;98719.38;;;27.17;34.40
19526;BME280;9907;42.676;26.348;2022-07-11T10:11:20;98718.19;;;27.07;35.43
19526;BME280;9907;42.676;26.348;2022-07-11T10:13:49;98728.47;;;27.00;35.78
19526;BME280;9907;42.676;26.348;2022-07-11T10:19:16;98709.22;;;26.95;35.86
19526;BME280;9907;42.676;26.348;2022-07-11T10:27:29;98719.75;;;26.87;34.01
19526;BME280;9907;42.676;26.348;2022-07-11T10:29:59;98701.69;;;26.86;35.42
19526;BME280;9907;42.676;26.348;2022-07-11T10:32:26;98712.38;;;26.87;33.72
19526;BME280;9907;42.676;26.348;2022-07-11T10:35:26;98711.81;;;26.85;34.22
19526;BME280;9907;42.676;26.348;2022-07-11T10:37:53;98703.72;;;26.95;34.90
19526;BME280;9907;42.676;26.348;2022-07-11T10:43:07;98701.88;;;27.18;36.06
19526;BME280;9907;42.676;26.348;2022-07-11T10:46:01;98704.41;;;27.24;36.97
19526;BME280;9907;42.676;26.348;2022-07-11T10:48:29;98711.66;;;27.30;35.14
19526;BME280;9907;42.676;26.348;2022-07-11T10:51:14;98706.00;;;27.20;34.09
19526;BME280;9907;42.676;26.348;2022-07-11T10:53:47;98699.97;;;27.18;33.72
19526;BME280;9907;42.676;26.348;2022-07-11T10:59:13;98711.25;;;27.22;34.38
19526;BME280;9907;42.676;26.348;2022-07-11T11:02:01;98708.00;;;27.25;35.18
19526;BME280;9907;42.676;26.348;2022-07-11T11:04:51;98702.00;;;27.28;32.82
19526;BME280;9907;42.676;26.348;2022-07-11T11:09:55;98713.25;;;27.26;33.45
19526;BME280;9907;42.676;26.348;2022-07-11T11:12:21;98713.47;;;27.25;33.33
19526;BME280;9907;42.676;26.348;2022-07-11T11:23:25;98718.03;;;26.97;34.34
19526;BME280;9907;42.676;26.348;2022-07-11T11:25:52;98688.03;;;26.91;34.23
19526;BME280;9907;42.676;26.348;2022-07-11T11:28:21;98701.16;;;26.89;32.97
19526;BME280;9907;42.676;26.348;2022-07-11T11:30:54;98706.16;;;26.92;33.74
19526;BME280;9907;42.676;26.348;2022-07-11T11:33:20;98711.94;;;26.95;34.21
19526;BME280;9907;42.676;26.348;2022-07-11T11:36:01;98702.38;;;26.98;33.24
19526;BME280;9907;42.676;26.348;2022-07-11T11:38:27;98707.41;;;27.01;33.95
19526;BME280;9907;42.676;26.348;2022-07-11T11:40:54;98706.56;;;27.00;33.46
19526;BME280;9907;42.676;26.348;2022-07-11T11:43:22;98710.47;;;27.04;33.95
19526;BME280;9907;42.676;26.348;2022-07-11T11:45:49;98715.75;;;26.94;34.95
19526;BME280;9907;42.676;26.348;2022-07-11T11:48:30;98727.66;;;26.83;34.63
19526;BME280;9907;42.676;26.348;2022-07-11T11:51:03;98722.47;;;26.70;34.29
19526;BME280;9907;42.676;26.348;2022-07-11T11:53:34;98718.34;;;26.68;34.08
19526;BME280;9907;42.676;26.348;2022-07-11T11:56:00;98731.09;;;26.62;33.69
19526;BME280;9907;42.676;26.348;2022-07-11T11:58:26;98722.31;;;26.60;34.08
19526;BME280;9907;42.676;26.348;2022-07-11T12:00:55;98699.91;;;26.63;34.64
19526;BME280;9907;42.676;26.348;2022-07-11T12:03:20;98710.03;;;26.62;34.44
19526;BME280;9907;42.676;26.348;2022-07-11T12:05:56;98710.84;;;26.63;34.90
19526;BME280;9907;42.676;26.348;2022-07-11T12:08:29;98709.28;;;26.67;35.30
19526;BME280;9907;42.676;26.348;2022-07-11T12:10:55;98707.94;;;26.70;34.25
19526;BME280;9907;42.676;26.348;2022-07-11T12:13:21;98708.28;;;26.73;34.51
19526;BME280;9907;42.676;26.348;2022-07-11T12:15:47;98703.56;;;26.85;33.80
19526;BME280;9907;42.676;26.348;2022-07-11T12:18:36;98725.38;;;26.80;34.13
19526;BME280;9907;42.676;26.348;2022-07-11T12:21:12;98709.53;;;26.66;34.39
19526;BME280;9907;42.676;26.348;2022-07-11T12:23:39;98711.34;;;26.60;33.60
19526;BME280;9907;42.676;26.348;2022-07-11T12:26:05;98716.50;;;26.56;34.34
19526;BME280;9907;42.676;26.348;2022-07-11T12:28:34;98708.19;;;26.51;34.27
19526;BME280;9907;42.676;26.348;2022-07-11T12:30:59;98711.50;;;26.53;34.17
19526;BME280;9907;42.676;26.348;2022-07-11T12:33:26;98710.69;;;26.53;33.81
19526;BME280;9907;42.676;26.348;2022-07-11T12:36:02;98710.25;;;26.44;33.55
19526;BME280;9907;42.676;26.348;2022-07-11T12:38:51;98710.50;;;26.43;33.50
19526;BME280;9907;42.676;26.348;2022-07-11T12:41:16;98702.03;;;26.44;33.57
19526;BME280;9907;42.676;26.348;2022-07-11T12:43:50;98704.44;;;26.41;34.15
19526;BME280;9907;42.676;26.348;2022-07-11T12:46:34;98701.88;;;26.51;34.03
19526;BME280;9907;42.676;26.348;2022-07-11T12:49:01;98691.09;;;26.61;35.30
19526;BME280;9907;42.676;26.348;2022-07-11T12:51:38;98700.22;;;26.67;34.34
19526;BME280;9907;42.676;26.348;2022-07-11T12:54:08;98702.88;;;26.78;35.61
19526;BME280;9907;42.676;26.348;2022-07-11T12:56:35;98700.84;;;26.85;35.08
19526;BME280;9907;42.676;26.348;2022-07-11T12:59:02;98697.09;;;26.91;36.73
19526;BME280;9907;42.676;26.348;2022-07-11T13:01:32;98702.97;;;27.00;36.85
19526;BME280;9907;42.676;26.348;2022-07-11T13:03:58;98709.34;;;27.05;35.28
19526;BME280;9907;42.676;26.348;2022-07-11T13:06:24;98697.41;;;27.12;33.41
19526;BME280;9907;42.676;26.348;2022-07-11T13:09:09;98709.78;;;27.14;33.48
19526;BME280;9907;42.676;26.348;2022-07-11T13:11:35;98699.72;;;27.20;33.77
19526;BME280;9907;42.676;26.348;2022-07-11T13:14:01;98711.81;;;27.24;35.10
19526;BME280;9907;42.676;26.348;2022-07-11T13:16:27;98709.59;;;27.21;34.93
19526;BME280;9907;42.676;26.348;2022-07-11T13:18:52;98702.38;;;27.15;34.78
19526;BME280;9907;42.676;26.348;2022-07-11T13:21:18;98704.78;;;27.11;34.88
19526;BME280;9907;42.676;26.348;2022-07-11T13:23:44;98712.19;;;27.10;33.40
19526;BME280;9907;42.676;26.348;2022-07-11T13:26:10;98710.19;;;27.06;32.60
19526;BME280;9907;42.676;26.348;2022-07-11T13:28:36;98706.06;;;27.03;33.56
19526;BME280;9907;42.676;26.348;2022-07-11T13:31:02;98720.25;;;27.00;33.07
19526;BME280;9907;42.676;26.348;2022-07-11T13:33:31;98713.53;;;26.91;31.73